sensor_id;sensor_type;location;lat;lon;timestamp;temperature;humidity
42097;DHT22;27754;45.414;11.084;2023-09-19T00:00:57;20.50;88.70
42097;DHT22;27754;45.414;11.084;2023-09-19T00:03:24;20.40;89.00
42097;DHT22;27754;45.414;11.084;2023-09-19T00:05:58;20.40;89.20
42097;DHT22;27754;45.414;11.084;2023-09-19T00:08:25;20.40;89.50
42097;DHT22;27754;45.414;11.084;2023-09-19T00:10:54;20.40;89.70
42097;DHT22;27754;45.414;11.084;2023-09-19T00:13:21;20.40;89.70
42097;DHT22;27754;45.414;11.084;2023-09-19T00:15:48;20.30;89.60
42097;DHT22;27754;45.414;11.084;2023-09-19T00:18:20;20.30;89.50
42097;DHT22;27754;45.414;11.084;2023-09-19T00:20:50;20.30;89.70
42097;DHT22;27754;45.414;11.084;2023-09-19T00:23:20;20.30;89.60
42097;DHT22;27754;45.414;11.084;2023-09-19T00:25:48;20.30;89.40
42097;DHT22;27754;45.414;11.084;2023-09-19T00:28:15;20.10;89.50
42097;DHT22;27754;45.414;11.084;2023-09-19T00:30:44;20.00;89.70
42097;DHT22;27754;45.414;11.084;2023-09-19T00:33:12;20.00;90.10
42097;DHT22;27754;45.414;11.084;2023-09-19T00:35:50;20.00;90.10
42097;DHT22;27754;45.414;11.084;2023-09-19T00:38:18;20.00;90.00
42097;DHT22;27754;45.414;11.084;2023-09-19T00:40:49;19.90;89.90
42097;DHT22;27754;45.414;11.084;2023-09-19T00:43:18;19.90;90.00
42097;DHT22;27754;45.414;11.084;2023-09-19T00:45:48;19.90;90.20
42097;DHT22;27754;45.414;11.084;2023-09-19T00:48:19;19.90;90.30
42097;DHT22;27754;45.414;11.084;2023-09-19T00:50:48;20.00;90.40
42097;DHT22;27754;45.414;11.084;2023-09-19T00:53:24;20.00;90.50
42097;DHT22;27754;45.414;11.084;2023-09-19T00:55:54;20.00;90.40
42097;DHT22;27754;45.414;11.084;2023-09-19T00:58:22;20.10;90.60
42097;DHT22;27754;45.414;11.084;2023-09-19T01:00:50;20.10;90.50
42097;DHT22;27754;45.414;11.084;2023-09-19T01:03:18;20.00;90.40
42097;DHT22;27754;45.414;11.084;2023-09-19T01:05:46;20.00;90.40
42097;DHT22;27754;45.414;11.084;2023-09-19T01:08:13;20.10;90.30
42097;DHT22;27754;45.414;11.084;2023-09-19T01:10:46;20.00;90.50
42097;DHT22;27754;45.414;11.084;2023-09-19T01:13:31;20.00;90.30
42097;DHT22;27754;45.414;11.084;2023-09-19T01:16:11;20.00;90.30
42097;DHT22;27754;45.414;11.084;2023-09-19T01:32:06;19.90;90.60
42097;DHT22;27754;45.414;11.084;2023-09-19T01:34:55;19.80;90.60
42097;DHT22;27754;45.414;11.084;2023-09-19T01:37:31;19.80;90.60
42097;DHT22;27754;45.414;11.084;2023-09-19T01:39:58;19.70;90.70
42097;DHT22;27754;45.414;11.084;2023-09-19T01:42:57;19.80;90.90
42097;DHT22;27754;45.414;11.084;2023-09-19T01:48:38;19.60;91.10
42097;DHT22;27754;45.414;11.084;2023-09-19T01:51:10;19.60;91.20
42097;DHT22;27754;45.414;11.084;2023-09-19T01:54:03;19.60;91.30
42097;DHT22;27754;45.414;11.084;2023-09-19T01:56:47;19.60;91.40
42097;DHT22;27754;45.414;11.084;2023-09-19T01:59:22;19.50;91.50
42097;DHT22;27754;45.414;11.084;2023-09-19T02:01:52;19.40;91.50
42097;DHT22;27754;45.414;11.084;2023-09-19T02:04:20;19.40;91.60
42097;DHT22;27754;45.414;11.084;2023-09-19T02:06:47;19.50;91.70
42097;DHT22;27754;45.414;11.084;2023-09-19T02:09:14;19.40;91.70
42097;DHT22;27754;45.414;11.084;2023-09-19T02:11:42;19.40;91.80
42097;DHT22;27754;45.414;11.084;2023-09-19T02:14:09;19.50;91.90
42097;DHT22;27754;45.414;11.084;2023-09-19T02:16:36;19.60;92.10
42097;DHT22;27754;45.414;11.084;2023-09-19T02:19:04;19.60;91.70
42097;DHT22;27754;45.414;11.084;2023-09-19T02:21:32;19.60;91.60
42097;DHT22;27754;45.414;11.084;2023-09-19T02:24:00;19.60;91.70
42097;DHT22;27754;45.414;11.084;2023-09-19T02:26:27;19.60;91.80
42097;DHT22;27754;45.414;11.084;2023-09-19T02:28:54;19.60;91.90
42097;DHT22;27754;45.414;11.084;2023-09-19T02:31:22;19.60;91.70
42097;DHT22;27754;45.414;11.084;2023-09-19T02:33:49;19.50;91.60
42097;DHT22;27754;45.414;11.084;2023-09-19T02:36:16;19.50;91.70
42097;DHT22;27754;45.414;11.084;2023-09-19T02:38:44;19.50;91.80
42097;DHT22;27754;45.414;11.084;2023-09-19T02:41:11;19.50;91.70
42097;DHT22;27754;45.414;11.084;2023-09-19T02:43:38;19.50;91.90
42097;DHT22;27754;45.414;11.084;2023-09-19T02:46:06;19.50;92.10
42097;DHT22;27754;45.414;11.084;2023-09-19T02:48:33;19.50;92.00
42097;DHT22;27754;45.414;11.084;2023-09-19T02:51:02;19.50;91.90
42097;DHT22;27754;45.414;11.084;2023-09-19T02:53:32;19.40;92.10
42097;DHT22;27754;45.414;11.084;2023-09-19T02:55:59;19.40;91.90
42097;DHT22;27754;45.414;11.084;2023-09-19T02:58:27;19.40;92.20
42097;DHT22;27754;45.414;11.084;2023-09-19T03:00:57;19.40;92.10
42097;DHT22;27754;45.414;11.084;2023-09-19T03:03:24;19.50;92.30
42097;DHT22;27754;45.414;11.084;2023-09-19T03:05:53;19.40;92.30
42097;DHT22;27754;45.414;11.084;2023-09-19T03:08:22;19.40;92.10
42097;DHT22;27754;45.414;11.084;2023-09-19T03:10:49;19.30;92.00
42097;DHT22;27754;45.414;11.084;2023-09-19T03:13:16;19.30;92.20
42097;DHT22;27754;45.414;11.084;2023-09-19T03:15:44;19.30;92.20
42097;DHT22;27754;45.414;11.084;2023-09-19T03:18:16;19.20;92.30
42097;DHT22;27754;45.414;11.084;2023-09-19T03:20:43;19.20;92.00
42097;DHT22;27754;45.414;11.084;2023-09-19T03:23:11;19.10;92.10
42097;DHT22;27754;45.414;11.084;2023-09-19T03:25:40;19.10;92.30
42097;DHT22;27754;45.414;11.084;2023-09-19T03:28:07;19.10;92.50
42097;DHT22;27754;45.414;11.084;2023-09-19T03:30:35;19.10;92.70
42097;DHT22;27754;45.414;11.084;2023-09-19T03:33:04;19.00;92.80
42097;DHT22;27754;45.414;11.084;2023-09-19T03:35:33;19.10;93.00
42097;DHT22;27754;45.414;11.084;2023-09-19T03:38:02;19.10;93.00
42097;DHT22;27754;45.414;11.084;2023-09-19T03:40:30;19.00;93.00
42097;DHT22;27754;45.414;11.084;2023-09-19T03:43:00;19.10;92.90
42097;DHT22;27754;45.414;11.084;2023-09-19T03:45:28;19.10;92.70
42097;DHT22;27754;45.414;11.084;2023-09-19T03:47:55;19.00;92.30
42097;DHT22;27754;45.414;11.084;2023-09-19T03:50:23;19.00;92.80
42097;DHT22;27754;45.414;11.084;2023-09-19T03:52:55;19.00;92.60
42097;DHT22;27754;45.414;11.084;2023-09-19T03:55:22;18.90;92.70
42097;DHT22;27754;45.414;11.084;2023-09-19T03:57:49;18.90;92.70
42097;DHT22;27754;45.414;11.084;2023-09-19T04:00:17;18.90;92.80
42097;DHT22;27754;45.414;11.084;2023-09-19T04:02:48;18.90;92.70
42097;DHT22;27754;45.414;11.084;2023-09-19T04:05:15;18.90;92.80
42097;DHT22;27754;45.414;11.084;2023-09-19T04:07:44;18.90;92.60
42097;DHT22;27754;45.414;11.084;2023-09-19T04:10:13;18.90;92.70
42097;DHT22;27754;45.414;11.084;2023-09-19T04:12:40;18.90;92.70
42097;DHT22;27754;45.414;11.084;2023-09-19T04:15:08;18.90;92.80
42097;DHT22;27754;45.414;11.084;2023-09-19T04:17:35;18.90;92.80
42097;DHT22;27754;45.414;11.084;2023-09-19T04:20:03;18.90;92.80
42097;DHT22;27754;45.414;11.084;2023-09-19T04:22:34;18.90;92.70
42097;DHT22;27754;45.414;11.084;2023-09-19T04:25:02;18.90;92.90
42097;DHT22;27754;45.414;11.084;2023-09-19T04:27:30;18.90;92.80
42097;DHT22;27754;45.414;11.084;2023-09-19T04:29:57;18.90;92.80
42097;DHT22;27754;45.414;11.084;2023-09-19T04:32:29;19.00;92.80
42097;DHT22;27754;45.414;11.084;2023-09-19T04:34:56;19.00;92.90
42097;DHT22;27754;45.414;11.084;2023-09-19T04:37:26;19.00;93.00
42097;DHT22;27754;45.414;11.084;2023-09-19T04:39:53;19.10;93.00
42097;DHT22;27754;45.414;11.084;2023-09-19T04:42:21;19.10;92.80
42097;DHT22;27754;45.414;11.084;2023-09-19T04:44:48;19.10;92.70
42097;DHT22;27754;45.414;11.084;2023-09-19T04:47:16;19.10;92.60
42097;DHT22;27754;45.414;11.084;2023-09-19T04:49:43;19.10;92.40
42097;DHT22;27754;45.414;11.084;2023-09-19T04:52:10;19.10;92.50
42097;DHT22;27754;45.414;11.084;2023-09-19T04:54:37;19.00;92.30
42097;DHT22;27754;45.414;11.084;2023-09-19T04:57:05;19.00;92.50
42097;DHT22;27754;45.414;11.084;2023-09-19T04:59:32;19.00;92.50
42097;DHT22;27754;45.414;11.084;2023-09-19T05:01:59;19.00;92.80
42097;DHT22;27754;45.414;11.084;2023-09-19T05:04:26;19.00;92.70
42097;DHT22;27754;45.414;11.084;2023-09-19T05:06:54;19.00;92.50
42097;DHT22;27754;45.414;11.084;2023-09-19T05:09:21;18.90;92.10
42097;DHT22;27754;45.414;11.084;2023-09-19T05:11:48;18.90;91.80
42097;DHT22;27754;45.414;11.084;2023-09-19T05:14:16;18.90;91.90
42097;DHT22;27754;45.414;11.084;2023-09-19T05:16:43;18.80;91.80
42097;DHT22;27754;45.414;11.084;2023-09-19T05:19:10;18.70;91.70
42097;DHT22;27754;45.414;11.084;2023-09-19T05:21:38;18.80;91.90
42097;DHT22;27754;45.414;11.084;2023-09-19T05:24:06;18.80;92.00
42097;DHT22;27754;45.414;11.084;2023-09-19T05:26:37;18.90;92.00
42097;DHT22;27754;45.414;11.084;2023-09-19T05:29:04;19.00;92.20
42097;DHT22;27754;45.414;11.084;2023-09-19T05:31:31;19.00;92.20
42097;DHT22;27754;45.414;11.084;2023-09-19T05:33:59;19.10;92.30
42097;DHT22;27754;45.414;11.084;2023-09-19T05:36:27;19.20;92.20
42097;DHT22;27754;45.414;11.084;2023-09-19T05:38:56;19.30;92.00
42097;DHT22;27754;45.414;11.084;2023-09-19T05:41:23;19.40;91.60
42097;DHT22;27754;45.414;11.084;2023-09-19T05:43:50;19.40;91.40
42097;DHT22;27754;45.414;11.084;2023-09-19T05:46:17;19.40;91.30
42097;DHT22;27754;45.414;11.084;2023-09-19T05:48:45;19.60;91.20
42097;DHT22;27754;45.414;11.084;2023-09-19T05:51:14;19.70;91.00
42097;DHT22;27754;45.414;11.084;2023-09-19T05:53:41;19.80;90.80
42097;DHT22;27754;45.414;11.084;2023-09-19T05:56:10;19.90;90.50
42097;DHT22;27754;45.414;11.084;2023-09-19T05:58:38;20.00;90.00
42097;DHT22;27754;45.414;11.084;2023-09-19T06:01:05;20.20;90.20
42097;DHT22;27754;45.414;11.084;2023-09-19T06:03:34;20.40;89.40
42097;DHT22;27754;45.414;11.084;2023-09-19T06:06:02;20.50;89.10
42097;DHT22;27754;45.414;11.084;2023-09-19T06:08:29;20.70;89.00
42097;DHT22;27754;45.414;11.084;2023-09-19T06:10:57;20.90;88.20
42097;DHT22;27754;45.414;11.084;2023-09-19T06:13:24;21.10;87.90
42097;DHT22;27754;45.414;11.084;2023-09-19T06:15:55;21.30;87.20
42097;DHT22;27754;45.414;11.084;2023-09-19T06:18:23;21.30;86.60
42097;DHT22;27754;45.414;11.084;2023-09-19T06:20:53;21.40;86.80
42097;DHT22;27754;45.414;11.084;2023-09-19T06:23:21;21.50;86.50
42097;DHT22;27754;45.414;11.084;2023-09-19T06:25:48;21.70;86.50
42097;DHT22;27754;45.414;11.084;2023-09-19T06:28:15;21.80;85.70
42097;DHT22;27754;45.414;11.084;2023-09-19T06:30:45;21.90;85.40
42097;DHT22;27754;45.414;11.084;2023-09-19T06:33:12;22.10;84.50
42097;DHT22;27754;45.414;11.084;2023-09-19T06:35:44;22.30;84.60
42097;DHT22;27754;45.414;11.084;2023-09-19T06:38:11;22.40;84.10
42097;DHT22;27754;45.414;11.084;2023-09-19T06:40:41;22.60;84.10
42097;DHT22;27754;45.414;11.084;2023-09-19T06:43:11;22.70;83.10
42097;DHT22;27754;45.414;11.084;2023-09-19T06:45:39;22.90;82.70
42097;DHT22;27754;45.414;11.084;2023-09-19T06:48:06;22.90;81.90
42097;DHT22;27754;45.414;11.084;2023-09-19T06:50:33;23.10;82.00
42097;DHT22;27754;45.414;11.084;2023-09-19T06:53:01;23.20;82.00
42097;DHT22;27754;45.414;11.084;2023-09-19T06:55:29;23.40;81.20
42097;DHT22;27754;45.414;11.084;2023-09-19T06:57:59;23.50;80.10
42097;DHT22;27754;45.414;11.084;2023-09-19T07:00:26;23.40;80.20
42097;DHT22;27754;45.414;11.084;2023-09-19T07:05:28;23.80;80.00
42097;DHT22;27754;45.414;11.084;2023-09-19T07:07:56;24.00;79.60
42097;DHT22;27754;45.414;11.084;2023-09-19T07:10:23;24.00;79.60
42097;DHT22;27754;45.414;11.084;2023-09-19T07:13:02;24.20;78.70
42097;DHT22;27754;45.414;11.084;2023-09-19T07:15:32;24.30;78.60
42097;DHT22;27754;45.414;11.084;2023-09-19T07:18:03;24.40;77.90
42097;DHT22;27754;45.414;11.084;2023-09-19T07:20:30;24.40;77.40
42097;DHT22;27754;45.414;11.084;2023-09-19T07:22:59;24.50;78.10
42097;DHT22;27754;45.414;11.084;2023-09-19T07:25:28;24.70;77.40
42097;DHT22;27754;45.414;11.084;2023-09-19T07:27:56;24.80;76.70
42097;DHT22;27754;45.414;11.084;2023-09-19T07:30:23;24.90;77.20
42097;DHT22;27754;45.414;11.084;2023-09-19T07:32:53;25.10;77.00
42097;DHT22;27754;45.414;11.084;2023-09-19T07:35:20;25.20;77.10
42097;DHT22;27754;45.414;11.084;2023-09-19T07:37:51;25.30;76.60
42097;DHT22;27754;45.414;11.084;2023-09-19T07:40:19;25.40;75.80
42097;DHT22;27754;45.414;11.084;2023-09-19T07:42:48;25.50;75.90
42097;DHT22;27754;45.414;11.084;2023-09-19T07:45:15;25.70;75.50
42097;DHT22;27754;45.414;11.084;2023-09-19T07:47:48;25.70;75.60
42097;DHT22;27754;45.414;11.084;2023-09-19T07:50:16;25.80;75.40
42097;DHT22;27754;45.414;11.084;2023-09-19T07:52:49;26.00;75.20
42097;DHT22;27754;45.414;11.084;2023-09-19T07:55:20;26.00;74.50
42097;DHT22;27754;45.414;11.084;2023-09-19T07:57:51;26.10;73.50
42097;DHT22;27754;45.414;11.084;2023-09-19T08:00:18;26.30;73.00
42097;DHT22;27754;45.414;11.084;2023-09-19T08:02:45;26.30;73.30
42097;DHT22;27754;45.414;11.084;2023-09-19T08:05:16;26.20;72.80
42097;DHT22;27754;45.414;11.084;2023-09-19T08:07:45;26.30;73.40
42097;DHT22;27754;45.414;11.084;2023-09-19T08:10:16;26.20;72.80
42097;DHT22;27754;45.414;11.084;2023-09-19T08:12:47;26.20;72.20
42097;DHT22;27754;45.414;11.084;2023-09-19T08:15:16;26.30;72.80
42097;DHT22;27754;45.414;11.084;2023-09-19T08:17:44;26.40;72.90
42097;DHT22;27754;45.414;11.084;2023-09-19T08:20:11;26.40;72.10
42097;DHT22;27754;45.414;11.084;2023-09-19T08:22:49;26.40;72.40
42097;DHT22;27754;45.414;11.084;2023-09-19T08:25:23;26.40;71.40
42097;DHT22;27754;45.414;11.084;2023-09-19T08:27:52;26.30;71.30
42097;DHT22;27754;45.414;11.084;2023-09-19T08:30:20;26.30;67.90
42097;DHT22;27754;45.414;11.084;2023-09-19T08:32:56;26.40;69.80
42097;DHT22;27754;45.414;11.084;2023-09-19T08:35:24;26.50;68.80
42097;DHT22;27754;45.414;11.084;2023-09-19T08:37:51;26.40;67.80
42097;DHT22;27754;45.414;11.084;2023-09-19T08:40:18;26.50;69.20
42097;DHT22;27754;45.414;11.084;2023-09-19T08:42:53;26.60;69.30
42097;DHT22;27754;45.414;11.084;2023-09-19T08:45:21;26.70;68.30
42097;DHT22;27754;45.414;11.084;2023-09-19T08:50:43;26.80;66.30
42097;DHT22;27754;45.414;11.084;2023-09-19T08:53:11;26.70;65.60
42097;DHT22;27754;45.414;11.084;2023-09-19T08:55:43;26.70;66.10
42097;DHT22;27754;45.414;11.084;2023-09-19T08:58:15;26.80;65.80
42097;DHT22;27754;45.414;11.084;2023-09-19T09:00:48;26.70;65.20
42097;DHT22;27754;45.414;11.084;2023-09-19T09:03:16;26.80;65.00
42097;DHT22;27754;45.414;11.084;2023-09-19T09:05:46;27.00;65.10
42097;DHT22;27754;45.414;11.084;2023-09-19T09:08:14;27.00;65.90
42097;DHT22;27754;45.414;11.084;2023-09-19T09:10:44;26.80;65.00
42097;DHT22;27754;45.414;11.084;2023-09-19T09:13:12;26.80;65.10
42097;DHT22;27754;45.414;11.084;2023-09-19T09:15:41;26.80;65.10
42097;DHT22;27754;45.414;11.084;2023-09-19T09:18:09;26.70;65.10
42097;DHT22;27754;45.414;11.084;2023-09-19T09:20:36;26.90;64.40
42097;DHT22;27754;45.414;11.084;2023-09-19T09:23:04;26.80;65.00
42097;DHT22;27754;45.414;11.084;2023-09-19T09:25:54;26.80;63.70
42097;DHT22;27754;45.414;11.084;2023-09-19T09:28:27;26.90;63.50
42097;DHT22;27754;45.414;11.084;2023-09-19T09:30:55;27.00;63.20
42097;DHT22;27754;45.414;11.084;2023-09-19T09:33:23;27.00;63.80
42097;DHT22;27754;45.414;11.084;2023-09-19T09:36:00;27.10;63.30
42097;DHT22;27754;45.414;11.084;2023-09-19T09:38:53;27.10;63.40
42097;DHT22;27754;45.414;11.084;2023-09-19T09:41:36;27.00;63.40
42097;DHT22;27754;45.414;11.084;2023-09-19T09:44:16;27.00;63.20
42097;DHT22;27754;45.414;11.084;2023-09-19T09:46:48;27.10;63.50
42097;DHT22;27754;45.414;11.084;2023-09-19T09:49:23;27.10;62.90
42097;DHT22;27754;45.414;11.084;2023-09-19T09:52:04;27.00;62.90
42097;DHT22;27754;45.414;11.084;2023-09-19T09:54:38;27.00;62.90
42097;DHT22;27754;45.414;11.084;2023-09-19T09:57:10;27.00;63.00
42097;DHT22;27754;45.414;11.084;2023-09-19T09:59:53;27.00;63.10
42097;DHT22;27754;45.414;11.084;2023-09-19T10:02:35;26.90;63.40
42097;DHT22;27754;45.414;11.084;2023-09-19T10:05:18;27.20;63.10
42097;DHT22;27754;45.414;11.084;2023-09-19T10:07:48;27.30;63.00
42097;DHT22;27754;45.414;11.084;2023-09-19T10:10:40;27.40;62.80
42097;DHT22;27754;45.414;11.084;2023-09-19T10:13:12;27.30;63.30
42097;DHT22;27754;45.414;11.084;2023-09-19T10:15:46;27.40;62.60
42097;DHT22;27754;45.414;11.084;2023-09-19T10:18:26;27.60;62.40
42097;DHT22;27754;45.414;11.084;2023-09-19T10:21:14;27.50;62.40
42097;DHT22;27754;45.414;11.084;2023-09-19T10:23:42;27.50;63.30
42097;DHT22;27754;45.414;11.084;2023-09-19T10:26:17;27.60;63.00
42097;DHT22;27754;45.414;11.084;2023-09-19T10:28:46;27.60;62.90
42097;DHT22;27754;45.414;11.084;2023-09-19T10:31:19;27.60;62.60
42097;DHT22;27754;45.414;11.084;2023-09-19T10:33:49;27.60;61.90
42097;DHT22;27754;45.414;11.084;2023-09-19T10:36:17;27.70;61.40
42097;DHT22;27754;45.414;11.084;2023-09-19T10:38:46;27.60;61.70
42097;DHT22;27754;45.414;11.084;2023-09-19T10:41:16;27.50;62.10
42097;DHT22;27754;45.414;11.084;2023-09-19T10:43:48;27.50;62.70
42097;DHT22;27754;45.414;11.084;2023-09-19T10:46:16;27.80;61.10
42097;DHT22;27754;45.414;11.084;2023-09-19T10:48:43;27.80;61.40
42097;DHT22;27754;45.414;11.084;2023-09-19T10:51:22;27.80;61.50
42097;DHT22;27754;45.414;11.084;2023-09-19T10:54:12;27.80;62.00
42097;DHT22;27754;45.414;11.084;2023-09-19T10:56:47;27.70;61.40
42097;DHT22;27754;45.414;11.084;2023-09-19T10:59:17;27.80;60.70
42097;DHT22;27754;45.414;11.084;2023-09-19T11:01:51;27.90;61.10
42097;DHT22;27754;45.414;11.084;2023-09-19T11:04:37;28.00;61.10
42097;DHT22;27754;45.414;11.084;2023-09-19T11:07:10;28.00;60.80
42097;DHT22;27754;45.414;11.084;2023-09-19T11:09:55;28.00;61.40
42097;DHT22;27754;45.414;11.084;2023-09-19T11:14:59;27.70;60.70
42097;DHT22;27754;45.414;11.084;2023-09-19T11:17:33;27.70;60.30
42097;DHT22;27754;45.414;11.084;2023-09-19T11:20:19;27.90;60.20
42097;DHT22;27754;45.414;11.084;2023-09-19T11:30:46;27.80;60.80
42097;DHT22;27754;45.414;11.084;2023-09-19T11:33:31;27.80;60.00
42097;DHT22;27754;45.414;11.084;2023-09-19T11:46:22;28.10;57.80
42097;DHT22;27754;45.414;11.084;2023-09-19T11:48:50;28.10;59.00
42097;DHT22;27754;45.414;11.084;2023-09-19T11:51:19;28.10;59.40
42097;DHT22;27754;45.414;11.084;2023-09-19T11:53:55;28.00;58.70
42097;DHT22;27754;45.414;11.084;2023-09-19T11:56:24;28.00;57.60
42097;DHT22;27754;45.414;11.084;2023-09-19T11:58:54;28.00;58.30
42097;DHT22;27754;45.414;11.084;2023-09-19T12:01:33;28.10;58.50
42097;DHT22;27754;45.414;11.084;2023-09-19T12:04:03;28.10;58.40
42097;DHT22;27754;45.414;11.084;2023-09-19T12:06:32;28.20;59.30
42097;DHT22;27754;45.414;11.084;2023-09-19T12:08:59;28.30;58.90
42097;DHT22;27754;45.414;11.084;2023-09-19T12:11:30;28.40;58.90
42097;DHT22;27754;45.414;11.084;2023-09-19T12:14:01;28.30;58.50
42097;DHT22;27754;45.414;11.084;2023-09-19T12:16:29;28.30;58.60
42097;DHT22;27754;45.414;11.084;2023-09-19T12:19:18;28.40;58.10
42097;DHT22;27754;45.414;11.084;2023-09-19T12:21:58;28.50;57.60
42097;DHT22;27754;45.414;11.084;2023-09-19T12:24:27;28.50;57.20
42097;DHT22;27754;45.414;11.084;2023-09-19T12:27:01;28.50;56.80
42097;DHT22;27754;45.414;11.084;2023-09-19T12:29:52;28.60;56.10
42097;DHT22;27754;45.414;11.084;2023-09-19T12:32:35;28.60;56.40
42097;DHT22;27754;45.414;11.084;2023-09-19T12:35:02;28.80;54.80
42097;DHT22;27754;45.414;11.084;2023-09-19T12:37:34;28.90;53.90
42097;DHT22;27754;45.414;11.084;2023-09-19T12:40:09;28.80;54.20
42097;DHT22;27754;45.414;11.084;2023-09-19T12:42:45;28.70;55.20
42097;DHT22;27754;45.414;11.084;2023-09-19T12:45:17;28.80;55.50
42097;DHT22;27754;45.414;11.084;2023-09-19T12:51:08;28.90;55.20
42097;DHT22;27754;45.414;11.084;2023-09-19T12:53:44;29.00;54.60
42097;DHT22;27754;45.414;11.084;2023-09-19T12:56:17;29.10;55.00
42097;DHT22;27754;45.414;11.084;2023-09-19T12:58:52;29.10;54.90
42097;DHT22;27754;45.414;11.084;2023-09-19T13:01:23;29.00;54.70
42097;DHT22;27754;45.414;11.084;2023-09-19T13:04:21;29.00;54.30
42097;DHT22;27754;45.414;11.084;2023-09-19T13:07:41;29.00;55.00
42097;DHT22;27754;45.414;11.084;2023-09-19T13:10:16;29.10;55.60
42097;DHT22;27754;45.414;11.084;2023-09-19T13:12:44;29.10;55.30
42097;DHT22;27754;45.414;11.084;2023-09-19T13:15:15;29.10;55.00
42097;DHT22;27754;45.414;11.084;2023-09-19T13:17:48;28.80;56.20
42097;DHT22;27754;45.414;11.084;2023-09-19T13:20:23;28.70;56.70
42097;DHT22;27754;45.414;11.084;2023-09-19T13:22:59;28.60;57.10
42097;DHT22;27754;45.414;11.084;2023-09-19T13:25:37;28.70;56.70
42097;DHT22;27754;45.414;11.084;2023-09-19T13:28:08;28.70;56.60
42097;DHT22;27754;45.414;11.084;2023-09-19T13:30:37;28.50;57.30
42097;DHT22;27754;45.414;11.084;2023-09-19T13:33:11;28.50;57.30
42097;DHT22;27754;45.414;11.084;2023-09-19T13:35:41;28.70;57.20
42097;DHT22;27754;45.414;11.084;2023-09-19T13:38:08;28.80;56.40
42097;DHT22;27754;45.414;11.084;2023-09-19T13:40:40;29.10;55.30
42097;DHT22;27754;45.414;11.084;2023-09-19T13:43:10;29.20;54.40
42097;DHT22;27754;45.414;11.084;2023-09-19T13:45:40;29.10;54.80
42097;DHT22;27754;45.414;11.084;2023-09-19T13:48:10;29.20;54.90
42097;DHT22;27754;45.414;11.084;2023-09-19T13:50:41;29.30;55.30
42097;DHT22;27754;45.414;11.084;2023-09-19T13:53:09;29.30;54.40
42097;DHT22;27754;45.414;11.084;2023-09-19T13:55:36;29.20;54.70
42097;DHT22;27754;45.414;11.084;2023-09-19T13:58:04;29.30;53.80
42097;DHT22;27754;45.414;11.084;2023-09-19T14:00:33;29.20;54.10
42097;DHT22;27754;45.414;11.084;2023-09-19T14:03:01;29.40;54.20
42097;DHT22;27754;45.414;11.084;2023-09-19T14:05:28;29.50;53.90
42097;DHT22;27754;45.414;11.084;2023-09-19T14:07:56;29.60;53.50
42097;DHT22;27754;45.414;11.084;2023-09-19T14:10:25;29.70;52.80
42097;DHT22;27754;45.414;11.084;2023-09-19T14:12:54;29.80;52.80
42097;DHT22;27754;45.414;11.084;2023-09-19T14:15:21;29.50;52.60
42097;DHT22;27754;45.414;11.084;2023-09-19T14:17:59;29.60;52.90
42097;DHT22;27754;45.414;11.084;2023-09-19T14:20:27;29.70;53.20
42097;DHT22;27754;45.414;11.084;2023-09-19T14:22:56;29.80;52.20
42097;DHT22;27754;45.414;11.084;2023-09-19T14:25:25;29.70;51.70
42097;DHT22;27754;45.414;11.084;2023-09-19T14:27:52;29.80;51.40
42097;DHT22;27754;45.414;11.084;2023-09-19T14:30:19;29.80;51.10
42097;DHT22;27754;45.414;11.084;2023-09-19T14:32:46;29.90;51.10
42097;DHT22;27754;45.414;11.084;2023-09-19T14:35:13;29.80;50.90
42097;DHT22;27754;45.414;11.084;2023-09-19T14:37:40;29.80;51.20
42097;DHT22;27754;45.414;11.084;2023-09-19T14:40:08;29.80;51.20
42097;DHT22;27754;45.414;11.084;2023-09-19T14:42:39;29.80;50.00
42097;DHT22;27754;45.414;11.084;2023-09-19T14:45:06;29.60;50.20
42097;DHT22;27754;45.414;11.084;2023-09-19T14:47:33;29.50;50.40
42097;DHT22;27754;45.414;11.084;2023-09-19T14:50:02;29.60;50.40
42097;DHT22;27754;45.414;11.084;2023-09-19T14:52:33;29.50;50.60
42097;DHT22;27754;45.414;11.084;2023-09-19T14:55:03;29.60;50.30
42097;DHT22;27754;45.414;11.084;2023-09-19T14:57:31;29.50;49.40
42097;DHT22;27754;45.414;11.084;2023-09-19T14:59:58;29.60;49.10
42097;DHT22;27754;45.414;11.084;2023-09-19T15:02:27;29.60;48.90
42097;DHT22;27754;45.414;11.084;2023-09-19T15:04:54;29.40;48.90
42097;DHT22;27754;45.414;11.084;2023-09-19T15:07:21;29.40;48.50
42097;DHT22;27754;45.414;11.084;2023-09-19T15:09:48;29.40;48.50
42097;DHT22;27754;45.414;11.084;2023-09-19T15:12:15;29.40;48.30
42097;DHT22;27754;45.414;11.084;2023-09-19T15:14:43;29.40;47.40
42097;DHT22;27754;45.414;11.084;2023-09-19T15:17:10;29.40;47.80
42097;DHT22;27754;45.414;11.084;2023-09-19T15:19:38;29.30;48.30
42097;DHT22;27754;45.414;11.084;2023-09-19T15:22:05;29.30;48.60
42097;DHT22;27754;45.414;11.084;2023-09-19T15:24:32;29.20;48.80
42097;DHT22;27754;45.414;11.084;2023-09-19T15:26:59;29.10;49.40
42097;DHT22;27754;45.414;11.084;2023-09-19T15:29:26;29.00;48.70
42097;DHT22;27754;45.414;11.084;2023-09-19T15:31:55;28.90;48.50
42097;DHT22;27754;45.414;11.084;2023-09-19T15:34:25;28.80;49.00
42097;DHT22;27754;45.414;11.084;2023-09-19T15:36:52;28.70;49.50
42097;DHT22;27754;45.414;11.084;2023-09-19T15:39:19;28.70;49.60
42097;DHT22;27754;45.414;11.084;2023-09-19T15:41:49;28.70;49.90
42097;DHT22;27754;45.414;11.084;2023-09-19T15:44:19;28.60;49.40
42097;DHT22;27754;45.414;11.084;2023-09-19T15:46:46;28.60;48.90
42097;DHT22;27754;45.414;11.084;2023-09-19T15:49:13;28.50;50.30
42097;DHT22;27754;45.414;11.084;2023-09-19T15:51:41;28.40;50.30
42097;DHT22;27754;45.414;11.084;2023-09-19T15:54:14;28.40;51.00
42097;DHT22;27754;45.414;11.084;2023-09-19T15:56:44;28.30;51.90
42097;DHT22;27754;45.414;11.084;2023-09-19T15:59:12;28.30;51.60
42097;DHT22;27754;45.414;11.084;2023-09-19T16:01:39;28.20;51.50
42097;DHT22;27754;45.414;11.084;2023-09-19T16:04:11;28.20;50.90
42097;DHT22;27754;45.414;11.084;2023-09-19T16:06:39;28.10;50.60
42097;DHT22;27754;45.414;11.084;2023-09-19T16:09:06;28.10;51.00
42097;DHT22;27754;45.414;11.084;2023-09-19T16:11:34;28.10;51.30
42097;DHT22;27754;45.414;11.084;2023-09-19T16:14:02;28.00;51.90
42097;DHT22;27754;45.414;11.084;2023-09-19T16:16:30;27.90;52.40
42097;DHT22;27754;45.414;11.084;2023-09-19T16:19:00;27.80;52.70
42097;DHT22;27754;45.414;11.084;2023-09-19T16:21:33;27.80;52.90